createdAt,value
2019-05-19T00:01:00.792Z,99.90
2019-05-19T00:03:29.793Z,99.90
2019-05-19T00:05:58.736Z,99.90
2019-05-19T00:08:27.823Z,99.90
2019-05-19T00:10:56.828Z,99.90
2019-05-19T00:13:25.814Z,99.90
2019-05-19T00:15:54.718Z,99.90
2019-05-19T00:18:23.622Z,99.90
2019-05-19T00:20:52.564Z,99.90
2019-05-19T00:23:21.450Z,99.90
2019-05-19T00:25:50.334Z,99.90
2019-05-19T00:28:19.518Z,99.90
2019-05-19T00:30:48.419Z,99.90
2019-05-19T00:33:17.310Z,99.90
2019-05-19T00:35:46.482Z,99.90
2019-05-19T00:38:15.575Z,99.90
2019-05-19T00:40:44.425Z,99.90
2019-05-19T00:43:13.378Z,99.90
2019-05-19T00:45:42.277Z,99.90
2019-05-19T00:48:11.143Z,99.90
2019-05-19T00:50:40.229Z,99.90
2019-05-19T00:53:09.118Z,99.90
2019-05-19T00:55:38.106Z,99.90
2019-05-19T00:58:08.144Z,99.90
2019-05-19T01:00:37.123Z,99.90
2019-05-19T01:03:06.111Z,99.90
2019-05-19T01:05:35.055Z,99.90
2019-05-19T01:08:05.473Z,99.90
2019-05-19T01:10:34.627Z,99.90
2019-05-19T01:13:03.586Z,99.90
2019-05-19T01:15:32.683Z,99.90
2019-05-19T01:18:01.577Z,99.90
2019-05-19T01:20:30.539Z,99.90
2019-05-19T01:22:59.389Z,99.90
2019-05-19T01:25:28.271Z,99.90
2019-05-19T01:27:57.203Z,99.90
2019-05-19T01:30:26.254Z,99.90
2019-05-19T01:32:55.490Z,99.90
2019-05-19T01:35:25.217Z,99.90
2019-05-19T01:37:54.123Z,99.90
2019-05-19T01:40:23.062Z,99.90
2019-05-19T01:42:51.942Z,99.90
2019-05-19T01:45:20.827Z,99.90
2019-05-19T01:47:49.959Z,99.90
2019-05-19T01:50:18.969Z,99.90
2019-05-19T01:52:47.943Z,99.90
2019-05-19T01:55:17.297Z,99.90
2019-05-19T01:57:46.262Z,99.90
2019-05-19T02:00:15.320Z,99.90
2019-05-19T02:02:44.247Z,99.90
2019-05-19T02:05:13.838Z,99.90
2019-05-19T02:07:42.888Z,99.90
2019-05-19T02:10:11.986Z,99.90
2019-05-19T02:12:40.967Z,99.90
2019-05-19T02:15:10.212Z,99.90
2019-05-19T02:17:39.290Z,99.90
2019-05-19T02:20:10.775Z,99.90
2019-05-19T02:22:39.675Z,99.90
2019-05-19T02:25:09.263Z,99.90
2019-05-19T02:27:38.207Z,99.90
2019-05-19T02:30:10.925Z,99.90
2019-05-19T02:32:39.974Z,99.90
2019-05-19T02:35:09.784Z,99.90
2019-05-19T02:37:38.988Z,99.90
2019-05-19T02:40:08.826Z,99.90
2019-05-19T02:42:40.668Z,99.90
2019-05-19T02:45:10.595Z,99.90
2019-05-19T02:47:43.117Z,99.90
2019-05-19T02:50:13.166Z,99.90
2019-05-19T02:52:43.631Z,99.90
2019-05-19T02:55:12.913Z,99.90
2019-05-19T02:57:43.546Z,99.90
2019-05-19T03:00:13.249Z,99.90
2019-05-19T03:02:42.162Z,99.90
2019-05-19T03:05:11.337Z,99.90
2019-05-19T03:07:40.215Z,99.90
2019-05-19T03:10:09.407Z,99.90
2019-05-19T03:12:38.392Z,99.90
2019-05-19T03:15:07.642Z,99.90
2019-05-19T03:17:36.531Z,99.90
2019-05-19T03:20:06.958Z,99.90
2019-05-19T03:22:35.974Z,99.90
2019-05-19T03:25:07.291Z,99.90
2019-05-19T03:27:36.658Z,99.90
2019-05-19T03:30:26.313Z,99.90
2019-05-19T03:32:56.998Z,99.90
2019-05-19T03:35:25.879Z,99.90
2019-05-19T03:37:54.764Z,99.90
2019-05-19T03:40:23.730Z,99.90
2019-05-19T03:42:52.625Z,99.90
2019-05-19T03:45:21.605Z,99.90
2019-05-19T03:47:50.545Z,99.90
2019-05-19T03:50:19.584Z,99.90
2019-05-19T03:52:48.580Z,99.90
2019-05-19T03:55:17.517Z,99.90
2019-05-19T03:57:46.414Z,99.90
2019-05-19T04:00:16.399Z,99.90
2019-05-19T04:02:45.328Z,99.90
2019-05-19T04:05:14.325Z,99.90
2019-05-19T04:07:43.269Z,99.90
2019-05-19T04:10:12.401Z,99.90
2019-05-19T04:12:41.314Z,99.90
2019-05-19T04:15:10.342Z,99.90
2019-05-19T04:17:39.238Z,99.90
2019-05-19T04:20:08.519Z,99.90
2019-05-19T04:22:37.917Z,99.90
2019-05-19T04:25:06.999Z,99.90
2019-05-19T04:27:35.977Z,99.90
2019-05-19T04:30:06.332Z,99.90
2019-05-19T04:32:35.235Z,99.90
2019-05-19T04:35:05.247Z,99.90
2019-05-19T04:37:34.257Z,99.90
2019-05-19T04:40:03.512Z,99.90
2019-05-19T04:42:32.578Z,99.90
2019-05-19T04:45:02.004Z,99.90
2019-05-19T04:47:30.879Z,99.90
2019-05-19T04:49:59.759Z,99.90
2019-05-19T04:52:28.983Z,99.90
2019-05-19T04:54:57.915Z,99.90
2019-05-19T04:57:26.801Z,99.90
2019-05-19T04:59:55.735Z,99.90
2019-05-19T05:02:24.941Z,99.90
2019-05-19T05:04:53.911Z,99.90
2019-05-19T05:07:22.901Z,99.90
2019-05-19T05:09:52.002Z,99.90
2019-05-19T05:12:20.879Z,99.90
2019-05-19T05:14:49.911Z,99.90
2019-05-19T05:17:20.623Z,99.90
2019-05-19T05:19:49.687Z,99.90
2019-05-19T05:22:22.132Z,99.90
2019-05-19T05:24:49.166Z,99.90
2019-05-19T05:27:18.183Z,99.90
2019-05-19T05:29:47.185Z,99.90
2019-05-19T05:32:16.745Z,99.90
2019-05-19T05:34:45.695Z,99.90
2019-05-19T05:37:14.595Z,99.90
2019-05-19T05:39:43.553Z,99.90
2019-05-19T05:42:12.418Z,99.90
2019-05-19T05:44:41.346Z,99.90
2019-05-19T05:47:10.230Z,99.90
2019-05-19T05:49:39.178Z,99.90
2019-05-19T05:52:08.105Z,99.90
2019-05-19T05:54:37.825Z,99.90
2019-05-19T05:57:06.892Z,99.90
2019-05-19T05:59:35.976Z,99.90
2019-05-19T06:02:05.111Z,99.90
2019-05-19T06:04:34.294Z,99.90
2019-05-19T06:07:03.158Z,99.90
2019-05-19T06:09:32.591Z,99.90
2019-05-19T06:12:01.518Z,99.90
2019-05-19T06:14:30.496Z,99.90
2019-05-19T06:16:59.741Z,99.90
2019-05-19T06:19:31.435Z,99.90
2019-05-19T06:22:01.409Z,99.90
2019-05-19T06:24:30.840Z,99.90
2019-05-19T06:27:00.097Z,99.90
2019-05-19T06:29:29.634Z,99.90
2019-05-19T06:32:00.418Z,99.90
2019-05-19T06:34:29.381Z,99.90
2019-05-19T06:36:59.161Z,99.90
2019-05-19T06:39:28.267Z,99.90
2019-05-19T06:41:57.501Z,99.90
2019-05-19T06:44:26.548Z,99.90
2019-05-19T06:46:55.548Z,99.90
2019-05-19T06:49:24.479Z,99.90
2019-05-19T06:51:54.062Z,99.90
2019-05-19T06:54:23.006Z,99.90
2019-05-19T06:56:52.996Z,99.90
2019-05-19T06:59:22.067Z,99.90
2019-05-19T07:01:51.067Z,99.90
2019-05-19T07:04:20.918Z,99.90
2019-05-19T07:06:53.380Z,99.90
2019-05-19T07:09:23.346Z,99.90
2019-05-19T07:11:53.072Z,99.90
2019-05-19T07:14:22.843Z,99.90
2019-05-19T07:16:52.007Z,99.90
2019-05-19T07:19:21.546Z,99.90
2019-05-19T07:21:50.991Z,99.90
2019-05-19T07:24:20.301Z,99.90
2019-05-19T07:26:49.532Z,99.90
2019-05-19T07:29:18.983Z,99.90
2019-05-19T07:31:47.888Z,99.90
2019-05-19T07:34:16.836Z,99.90
2019-05-19T07:36:45.775Z,99.90
2019-05-19T07:39:15.613Z,99.90
2019-05-19T07:41:45.131Z,99.90
2019-05-19T07:44:14.351Z,99.90
2019-05-19T07:46:45.001Z,99.90
2019-05-19T07:49:15.926Z,99.90
2019-05-19T07:51:45.096Z,99.90
2019-05-19T07:54:14.298Z,99.90
2019-05-19T07:56:43.402Z,99.90
2019-05-19T07:59:12.387Z,99.90
2019-05-19T08:01:42.286Z,99.90
2019-05-19T08:04:11.716Z,99.90
2019-05-19T08:06:41.870Z,99.90
2019-05-19T08:09:13.208Z,99.90
2019-05-19T08:11:43.484Z,99.90
2019-05-19T08:14:13.233Z,99.90
2019-05-19T08:16:42.974Z,99.90
2019-05-19T08:19:12.912Z,99.90
2019-05-19T08:21:41.862Z,99.90
2019-05-19T08:24:10.979Z,99.90
2019-05-19T08:26:40.359Z,99.90
2019-05-19T08:29:13.092Z,99.90
2019-05-19T08:31:42.105Z,99.90
2019-05-19T08:34:12.194Z,99.90
2019-05-19T08:36:43.323Z,99.90
2019-05-19T08:39:14.328Z,99.90
2019-05-19T08:41:43.753Z,99.90
2019-05-19T08:44:17.283Z,99.90
2019-05-19T08:46:46.053Z,99.90
2019-05-19T08:49:14.991Z,99.90
2019-05-19T08:51:44.938Z,99.90
2019-05-19T08:54:18.315Z,99.90
2019-05-19T08:56:47.964Z,99.90
2019-05-19T08:59:16.942Z,99.90
2019-05-19T09:01:46.372Z,99.90
2019-05-19T09:04:15.384Z,99.90
2019-05-19T09:06:44.377Z,99.90
2019-05-19T09:09:13.351Z,99.90
2019-05-19T09:11:42.943Z,99.90
2019-05-19T09:14:12.098Z,99.90
2019-05-19T09:16:41.053Z,99.90
2019-05-19T09:19:10.189Z,99.90
2019-05-19T09:21:41.345Z,99.90
2019-05-19T09:24:11.043Z,99.90
2019-05-19T09:26:40.951Z,99.90
2019-05-19T09:29:10.983Z,99.90
2019-05-19T09:31:41.476Z,99.90
2019-05-19T09:34:10.966Z,99.90
2019-05-19T09:36:40.550Z,99.90
2019-05-19T09:39:09.905Z,99.90
2019-05-19T09:41:39.230Z,99.90
2019-05-19T09:44:08.923Z,99.90
2019-05-19T09:46:38.943Z,99.90
2019-05-19T09:49:27.784Z,99.90
2019-05-19T09:51:56.978Z,99.90
2019-05-19T09:54:25.859Z,99.90
2019-05-19T09:56:56.390Z,98.80
2019-05-19T09:59:26.132Z,99.90
2019-05-19T10:01:56.544Z,99.60
2019-05-19T10:04:26.521Z,99.40
2019-05-19T10:06:56.589Z,99.30
2019-05-19T10:09:45.099Z,99.90
2019-05-19T10:12:14.916Z,99.90
2019-05-19T10:14:43.806Z,99.30
2019-05-19T10:17:14.385Z,99.90
2019-05-19T10:19:44.617Z,99.90
2019-05-19T10:22:14.209Z,99.90
2019-05-19T10:24:59.296Z,99.90
2019-05-19T10:27:15.079Z,99.90
2019-05-19T10:29:46.550Z,99.90
2019-05-19T10:32:15.915Z,99.90
2019-05-19T10:34:44.883Z,99.90
2019-05-19T10:37:14.251Z,99.90
2019-05-19T10:39:46.215Z,99.90
2019-05-19T10:42:15.854Z,99.90
2019-05-19T10:44:45.460Z,99.90
2019-05-19T10:47:14.586Z,99.50
2019-05-19T10:49:43.916Z,99.90
2019-05-19T10:52:12.863Z,99.90
2019-05-19T10:54:41.956Z,99.90
2019-05-19T10:57:11.301Z,99.90
2019-05-19T10:59:41.516Z,99.40
2019-05-19T11:02:16.540Z,99.10
2019-05-19T11:04:42.838Z,99.30
2019-05-19T11:07:11.782Z,99.20
2019-05-19T11:09:40.916Z,99.30
2019-05-19T11:12:09.805Z,98.10
2019-05-19T11:14:38.738Z,97.90
2019-05-19T11:17:07.923Z,97.00
2019-05-19T11:19:36.879Z,97.70
2019-05-19T11:22:05.974Z,97.10
2019-05-19T11:24:34.854Z,96.80
2019-05-19T11:27:03.746Z,97.80
2019-05-19T11:29:33.030Z,92.20
2019-05-19T11:32:02.567Z,88.00
2019-05-19T11:34:31.520Z,92.00
2019-05-19T11:37:00.927Z,87.90
2019-05-19T11:39:29.938Z,92.10
2019-05-19T11:41:59.104Z,92.90
2019-05-19T11:44:28.003Z,80.20
2019-05-19T11:46:56.938Z,84.90
2019-05-19T11:49:27.272Z,83.40
2019-05-19T11:51:56.297Z,78.60
2019-05-19T11:54:25.476Z,77.80
2019-05-19T11:56:54.364Z,80.90
2019-05-19T11:59:23.304Z,86.20
2019-05-19T12:01:52.269Z,81.10
2019-05-19T12:04:21.217Z,77.30
2019-05-19T12:06:50.087Z,80.60
2019-05-19T12:09:19.330Z,80.50
2019-05-19T12:11:48.310Z,72.20
2019-05-19T12:14:17.259Z,74.50
2019-05-19T12:16:46.480Z,75.70
2019-05-19T12:19:15.407Z,69.30
2019-05-19T12:21:44.298Z,68.00
2019-05-19T12:24:13.261Z,68.90
2019-05-19T12:26:42.142Z,63.60
2019-05-19T12:29:11.799Z,69.30
2019-05-19T12:31:40.773Z,64.10
2019-05-19T12:34:09.723Z,61.20
2019-05-19T12:36:38.605Z,62.80
2019-05-19T12:39:07.498Z,60.00
2019-05-19T12:41:36.847Z,62.70
2019-05-19T12:44:05.998Z,57.70
2019-05-19T12:46:35.176Z,55.30
2019-05-19T12:49:04.096Z,57.50
2019-05-19T12:51:32.998Z,59.30
2019-05-19T12:54:02.371Z,61.00
2019-05-19T12:56:39.719Z,61.30
2019-05-19T12:59:01.914Z,67.40
2019-05-19T13:01:30.825Z,65.10
2019-05-19T13:03:59.786Z,58.20
2019-05-19T13:06:28.737Z,57.80
2019-05-19T13:08:57.629Z,56.00
2019-05-19T13:11:26.521Z,57.60
2019-05-19T13:13:55.606Z,58.10
2019-05-19T13:16:24.554Z,58.10
2019-05-19T13:18:53.650Z,59.10
2019-05-19T13:21:22.587Z,60.70
2019-05-19T13:23:51.679Z,62.00
2019-05-19T13:26:20.616Z,65.70
2019-05-19T13:28:49.495Z,66.70
2019-05-19T13:31:18.736Z,67.70
2019-05-19T13:33:47.635Z,74.80
2019-05-19T13:36:17.634Z,80.10
2019-05-19T13:38:46.842Z,83.00
2019-05-19T13:41:17.110Z,84.90
2019-05-19T13:43:46.850Z,85.00
2019-05-19T13:46:15.722Z,88.60
2019-05-19T13:48:44.659Z,90.70
2019-05-19T13:51:14.333Z,89.80
2019-05-19T13:53:43.311Z,87.10
2019-05-19T13:56:12.275Z,85.00
2019-05-19T13:58:41.203Z,85.70
2019-05-19T14:01:10.158Z,80.80
2019-05-19T14:03:39.040Z,85.10
2019-05-19T14:06:07.970Z,86.80
2019-05-19T14:08:37.056Z,85.10
2019-05-19T14:11:06.154Z,86.90
2019-05-19T14:13:35.042Z,88.10
2019-05-19T14:16:03.986Z,85.20
2019-05-19T14:18:32.881Z,83.90
2019-05-19T14:21:01.764Z,85.10
2019-05-19T14:23:30.911Z,85.20
2019-05-19T14:26:01.919Z,84.30
2019-05-19T14:28:30.861Z,83.80
2019-05-19T14:31:00.798Z,83.50
2019-05-19T14:33:29.735Z,85.50
2019-05-19T14:35:58.967Z,86.50
2019-05-19T14:38:27.939Z,87.70
2019-05-19T14:40:56.967Z,89.60
2019-05-19T14:43:27.458Z,87.90
2019-05-19T14:45:56.874Z,86.80
2019-05-19T14:48:25.964Z,83.10
2019-05-19T14:50:54.977Z,84.60
2019-05-19T14:53:23.853Z,81.20
2019-05-19T14:55:52.817Z,81.90
2019-05-19T14:58:22.834Z,80.40
2019-05-19T15:00:52.374Z,77.70
2019-05-19T15:03:21.298Z,74.60
2019-05-19T15:05:50.393Z,75.80
2019-05-19T15:08:20.979Z,76.60
2019-05-19T15:10:50.119Z,75.10
2019-05-19T15:13:19.360Z,73.50
2019-05-19T15:15:48.789Z,77.20
2019-05-19T15:18:20.747Z,80.20
2019-05-19T15:20:49.642Z,73.50
2019-05-19T15:23:19.119Z,76.10
2019-05-19T15:25:47.994Z,73.50
2019-05-19T15:28:16.878Z,72.50
2019-05-19T15:30:46.416Z,73.90
2019-05-19T15:33:15.497Z,70.20
2019-05-19T15:35:44.434Z,71.40
2019-05-19T15:38:13.326Z,73.40
2019-05-19T15:40:42.285Z,72.40
2019-05-19T15:43:11.160Z,72.30
2019-05-19T15:45:40.278Z,70.80
2019-05-19T15:48:09.361Z,72.80
2019-05-19T15:50:38.776Z,74.70
2019-05-19T15:53:07.940Z,73.40
2019-05-19T15:55:36.899Z,74.10
2019-05-19T15:58:16.261Z,74.90
2019-05-19T16:00:36.371Z,77.40
2019-05-19T16:03:05.863Z,77.90
2019-05-19T16:05:35.013Z,76.00
2019-05-19T16:08:03.938Z,78.10
2019-05-19T16:10:32.831Z,77.20
2019-05-19T16:13:01.768Z,75.50
2019-05-19T16:15:30.669Z,75.80
2019-05-19T16:17:59.608Z,78.00
2019-05-19T16:20:28.505Z,78.70
2019-05-19T16:22:57.907Z,81.10
2019-05-19T16:25:26.799Z,81.90
2019-05-19T16:27:55.791Z,83.50
2019-05-19T16:30:24.724Z,84.10
2019-05-19T16:32:53.670Z,83.10
2019-05-19T16:35:22.566Z,82.80
2019-05-19T16:37:51.597Z,84.30
2019-05-19T16:40:20.786Z,83.40
2019-05-19T16:42:49.661Z,87.80
2019-05-19T16:45:19.809Z,83.20
2019-05-19T16:47:49.377Z,84.50
2019-05-19T16:50:19.006Z,87.10
2019-05-19T16:52:48.177Z,85.40
2019-05-19T16:55:18.641Z,85.00
2019-05-19T16:57:47.570Z,86.30
2019-05-19T17:00:17.212Z,86.10
2019-05-19T17:02:46.140Z,87.40
2019-05-19T17:05:16.623Z,86.60
2019-05-19T17:07:46.069Z,87.60
2019-05-19T17:10:15.190Z,87.00
2019-05-19T17:12:44.084Z,90.00
2019-05-19T17:15:13.631Z,89.70
2019-05-19T17:17:42.573Z,90.30
2019-05-19T17:20:11.603Z,90.80
2019-05-19T17:22:41.144Z,91.20
2019-05-19T17:25:10.652Z,90.60
2019-05-19T17:27:39.653Z,91.00
2019-05-19T17:30:10.465Z,91.80
2019-05-19T17:32:39.368Z,92.50
2019-05-19T17:35:08.800Z,92.40
2019-05-19T17:37:37.800Z,92.20
2019-05-19T17:40:07.274Z,91.90
2019-05-19T17:42:37.285Z,92.00
2019-05-19T17:45:07.520Z,92.60
2019-05-19T17:47:36.402Z,92.40
2019-05-19T17:50:06.464Z,92.70
2019-05-19T17:52:35.481Z,93.20
2019-05-19T17:55:05.794Z,93.00
2019-05-19T17:57:35.570Z,92.60
2019-05-19T18:00:06.165Z,92.50
2019-05-19T18:02:35.113Z,93.00
2019-05-19T18:05:04.510Z,92.70
2019-05-19T18:07:33.462Z,92.70
2019-05-19T18:10:02.462Z,93.30
2019-05-19T18:12:31.600Z,92.80
2019-05-19T18:15:03.344Z,92.60
2019-05-19T18:17:32.184Z,93.10
2019-05-19T18:20:01.123Z,93.00
2019-05-19T18:22:30.144Z,93.00
2019-05-19T18:24:59.042Z,93.50
2019-05-19T18:27:28.015Z,93.00
2019-05-19T18:29:57.099Z,93.20
2019-05-19T18:32:26.358Z,94.00
2019-05-19T18:34:55.642Z,93.70
2019-05-19T18:37:24.599Z,93.90
2019-05-19T18:39:53.478Z,93.40
2019-05-19T18:42:22.356Z,93.50
2019-05-19T18:44:51.371Z,94.10
2019-05-19T18:47:20.355Z,94.70
2019-05-19T18:49:49.339Z,94.60
2019-05-19T18:52:18.294Z,94.50
2019-05-19T18:54:47.294Z,93.90
2019-05-19T18:57:16.251Z,93.80
2019-05-19T18:59:47.709Z,94.10
2019-05-19T19:02:15.965Z,94.10
2019-05-19T19:04:44.901Z,94.10
2019-05-19T19:07:13.868Z,94.60
2019-05-19T19:09:42.785Z,94.70
2019-05-19T19:12:11.733Z,95.10
2019-05-19T19:14:40.613Z,94.80
2019-05-19T19:17:09.503Z,95.10
2019-05-19T19:19:38.452Z,94.70
2019-05-19T19:22:07.353Z,94.70
2019-05-19T19:24:38.536Z,95.20
2019-05-19T19:27:07.060Z,95.20
2019-05-19T19:29:37.493Z,95.10
2019-05-19T19:32:06.460Z,95.30
2019-05-19T19:34:35.420Z,95.50
2019-05-19T19:37:04.567Z,96.20
2019-05-19T19:39:33.541Z,96.50
2019-05-19T19:42:02.883Z,96.30
2019-05-19T19:44:32.098Z,96.50
2019-05-19T19:47:01.283Z,96.80
2019-05-19T19:49:30.208Z,96.70
2019-05-19T19:51:59.239Z,96.60
2019-05-19T19:54:28.124Z,96.70
2019-05-19T19:57:00.224Z,96.90
2019-05-19T19:59:27.626Z,97.20
2019-05-19T20:01:56.707Z,97.00
2019-05-19T20:04:25.679Z,97.30
2019-05-19T20:06:54.644Z,97.50
2019-05-19T20:09:23.766Z,97.70
2019-05-19T20:11:52.920Z,98.10
2019-05-19T20:14:21.830Z,98.40
2019-05-19T20:16:50.796Z,98.50
2019-05-19T20:19:20.070Z,98.70
2019-05-19T20:21:49.242Z,98.70
2019-05-19T20:24:18.106Z,99.10
2019-05-19T20:26:47.213Z,99.30
2019-05-19T20:29:16.296Z,99.70
2019-05-19T20:31:45.302Z,99.90
2019-05-19T20:34:14.192Z,99.90
2019-05-19T20:36:43.440Z,99.90
2019-05-19T20:39:12.466Z,99.90
2019-05-19T20:41:41.424Z,99.90
2019-05-19T20:44:10.550Z,99.90
2019-05-19T20:46:39.531Z,99.90
2019-05-19T20:49:08.490Z,99.90
2019-05-19T20:51:37.767Z,99.90
2019-05-19T20:54:06.720Z,99.90
2019-05-19T20:56:35.608Z,99.90
2019-05-19T20:59:04.542Z,99.90
2019-05-19T21:01:33.477Z,99.90
2019-05-19T21:04:02.353Z,99.90
2019-05-19T21:06:31.387Z,99.90
2019-05-19T21:09:00.267Z,99.90
2019-05-19T21:11:29.916Z,99.90
2019-05-19T21:13:59.000Z,99.90
2019-05-19T21:16:28.421Z,99.90
2019-05-19T21:18:57.461Z,99.90
2019-05-19T21:21:38.763Z,99.90
2019-05-19T21:24:07.854Z,99.90
2019-05-19T21:26:36.735Z,99.90
2019-05-19T21:29:05.603Z,99.90
2019-05-19T21:31:34.548Z,99.90
2019-05-19T21:34:03.646Z,99.90
2019-05-19T21:36:32.523Z,99.90
2019-05-19T21:39:01.582Z,99.90
2019-05-19T21:41:30.490Z,99.90
2019-05-19T21:43:59.371Z,99.90
2019-05-19T21:46:28.299Z,99.90
2019-05-19T21:48:57.352Z,99.90
2019-05-19T21:51:26.230Z,99.90
2019-05-19T21:53:55.185Z,99.90
2019-05-19T21:56:24.068Z,99.90
2019-05-19T21:58:53.051Z,99.90
2019-05-19T22:01:23.519Z,99.90
2019-05-19T22:03:52.712Z,99.90
2019-05-19T22:06:23.269Z,99.90
2019-05-19T22:08:52.204Z,99.90
2019-05-19T22:11:21.185Z,99.90
2019-05-19T22:13:50.541Z,99.90
2019-05-19T22:16:19.426Z,99.90
2019-05-19T22:18:48.306Z,99.90
2019-05-19T22:21:17.561Z,99.90
2019-05-19T22:23:46.883Z,99.90
2019-05-19T22:26:16.721Z,99.90
2019-05-19T22:28:45.734Z,99.90
2019-05-19T22:31:14.910Z,99.90
2019-05-19T22:33:43.834Z,99.90
2019-05-19T22:36:12.715Z,99.90
2019-05-19T22:38:41.662Z,99.90
2019-05-19T22:41:10.708Z,99.90
2019-05-19T22:43:39.648Z,99.90
2019-05-19T22:46:08.544Z,99.90
2019-05-19T22:48:37.437Z,99.90
2019-05-19T22:51:06.366Z,99.90
2019-05-19T22:53:35.299Z,99.90
2019-05-19T22:56:04.214Z,99.90
2019-05-19T22:58:33.139Z,99.90
2019-05-19T23:01:02.456Z,99.90
2019-05-19T23:03:31.478Z,99.90
2019-05-19T23:06:00.452Z,99.90
2019-05-19T23:08:30.539Z,99.90
2019-05-19T23:10:59.441Z,99.90
2019-05-19T23:13:28.532Z,99.90
2019-05-19T23:15:58.480Z,99.90
2019-05-19T23:18:27.763Z,99.90
2019-05-19T23:20:56.707Z,99.90
2019-05-19T23:23:26.585Z,99.90
2019-05-19T23:25:55.458Z,99.90
2019-05-19T23:28:24.426Z,99.90
2019-05-19T23:30:53.302Z,99.90
2019-05-19T23:33:22.262Z,99.90
2019-05-19T23:35:51.157Z,99.90
2019-05-19T23:38:20.066Z,99.90
2019-05-19T23:40:49.007Z,99.90
2019-05-19T23:43:17.935Z,99.90
2019-05-19T23:45:46.827Z,99.90
2019-05-19T23:48:16.188Z,99.90
2019-05-19T23:50:45.281Z,99.90
2019-05-19T23:53:14.271Z,99.90
2019-05-19T23:55:43.248Z,99.90
2019-05-19T23:58:12.194Z,99.90
